Data for 01/28/2016

Time Sea-Level Adjusted Pressure Absolute Pressure Temperature Relative Humidity Dew Point   
(mb) (inHg) (mb) (inHg) (C) (F) (%) (C) (F)
00:05 1024 30.24 854 25.22 2.8 37 66 -3 26.5
00:10 1024 30.24 854 25.22 3 37.4 63 -3.3 26.1
00:15 1024 30.24 854 25.22 3.2 37.7 65 -2.7 27.1
00:20 1024 30.24 853 25.19 2.8 37.1 66 -2.9 26.9
00:25 1024 30.24 853 25.19 2.3 36.2 68 -3.1 26.5
00:30 1024 30.24 853 25.19 2.5 36.6 66 -3.1 26.4
00:35 1024 30.24 853 25.19 2.5 36.5 67 -3.1 26.4
00:40 1024 30.24 853 25.19 2.5 36.5 67 -3.1 26.4
00:45 1024 30.24 853 25.19 2.3 36.1 67 -3.2 26.3
00:50 1024 30.24 853 25.19 2.4 36.4 66 -3.3 26.1
00:55 1024 30.24 853 25.19 2.3 36.2 67 -3.2 26.2
01:00 1024 30.24 853 25.19 2.2 35.9 67 -3.3 26.1
01:05 1024 30.24 853 25.19 1.9 35.4 70 -3 26.7
01:10 1024 30.24 853 25.19 1 33.8 73 -3.3 26.1
01:15 1024 30.24 853 25.19 1.2 34.2 71 -3.4 25.9
01:20 1024 30.24 853 25.19 1.3 34.4 72 -3.3 26.1
01:25 1024 30.24 853 25.19 1.2 34.2 72 -3.3 26.1
01:30 1024 30.24 853 25.19 1.1 34 71 -3.5 25.7
01:35 1023 30.21 853 25.19 1.3 34.4 71 -3.3 26
01:40 1023 30.21 853 25.19 1.3 34.3 71 -3.3 26
01:45 1023 30.21 853 25.19 1 33.8 72 -3.4 25.8
01:50 1023 30.21 852 25.16 1.2 34.2 71 -3.4 25.8
01:55 1023 30.21 852 25.16 1.5 34.8 70 -3.4 25.8
02:00 1023 30.21 852 25.16 1.7 35 70 -3.3 26.1
02:05 1023 30.21 852 25.16 1.3 34.3 72 -3.3 26
02:10 1023 30.21 852 25.16 1.3 34.3 71 -3.5 25.8
02:15 1023 30.21 852 25.16 1.3 34.3 71 -3.3 26
02:20 1023 30.21 852 25.16 1.4 34.5 71 -3.4 25.9
02:25 1023 30.21 852 25.16 1.5 34.7 70 -3.4 26
02:30 1022 30.18 852 25.16 1.6 34.9 71 -3.2 26.3
02:35 1022 30.18 852 25.16 1.6 34.8 70 -3.3 26.1
02:40 1022 30.18 851 25.13 1.6 34.8 70 -3.4 25.9
02:45 1022 30.18 851 25.13 1.8 35.3 69 -3.3 26.1
02:50 1022 30.18 851 25.13 1.9 35.5 69 -3.2 26.2
02:55 1022 30.18 851 25.13 1.7 35.1 70 -3.1 26.4
03:00 1022 30.18 851 25.13 1.6 34.9 70 -3.3 26
03:05 1022 30.18 851 25.13 1.7 35.1 69 -3.3 26.1
03:10 1022 30.18 851 25.13 2.1 35.7 68 -3.2 26.3
03:15 1022 30.18 851 25.13 2.5 36.6 65 -3.4 26
03:20 1022 30.18 851 25.13 3 37.4 63 -3.4 25.9
03:25 1022 30.18 852 25.16 3.2 37.8 64 -3 26.7
03:30 1022 30.18 852 25.16 2.7 36.9 66 -3 26.5
03:35 1023 30.21 852 25.16 2 35.5 69 -3.2 26.3
03:40 1023 30.21 852 25.16 1.4 34.5 70 -3.5 25.6
03:45 1023 30.21 852 25.16 1.6 34.9 69 -3.4 25.8
03:50 1023 30.21 852 25.16 1.4 34.6 70 -3.5 25.8
03:55 1023 30.21 852 25.16 1.2 34.2 71 -3.4 25.9
04:00 1022 30.18 852 25.16 1.5 34.7 69 -3.6 25.6
04:05 1022 30.18 852 25.16 1 33.9 73 -3.2 26.2
04:10 1022 30.18 851 25.13 0.6 33 73 -3.7 25.3
04:15 1022 30.18 851 25.13 0.5 32.9 73 -3.8 25.2
04:20 1022 30.18 851 25.13 0.3 32.6 74 -3.8 25.1
04:25 1022 30.18 851 25.13 0.1 32.2 75 -3.8 25.1
04:30 1022 30.18 851 25.13 -0.5 31.2 77 -4 24.9
04:35 1022 30.18 851 25.13 -0.8 30.6 79 -4 24.7
04:40 1022 30.18 851 25.13 -0.5 31.1 77 -4 24.8
04:45 1022 30.18 851 25.13 -0 32 74 -4.1 24.6
04:50 1022 30.18 851 25.13 0.2 32.4 73 -4 24.8
04:55 1022 30.18 851 25.13 -0 32 75 -3.9 24.9
05:00 1022 30.18 851 25.13 -0.3 31.5 76 -4 24.9
05:05 1022 30.18 851 25.13 -0.4 31.3 76 -4.2 24.5
05:10 1022 30.18 851 25.13 -0.9 30.5 78 -4.3 24.3
05:15 1021 30.15 851 25.13 -0.9 30.4 78 -4.2 24.4
05:20 1021 30.15 851 25.13 -0.4 31.3 76 -4.1 24.7
05:25 1021 30.15 851 25.13 0.2 32.3 72 -4.2 24.4
05:30 1021 30.15 850 25.1 0.6 33 70 -4.3 24.2
05:35 1021 30.15 850 25.1 -0.5 31.1 78 -3.9 24.9
05:40 1021 30.15 850 25.1 -1.1 30 79 -4.3 24.3
05:45 1021 30.15 850 25.1 -0.7 30.7 78 -4.2 24.5
05:50 1021 30.15 850 25.1 -0.5 31 77 -4 24.7
05:55 1021 30.15 850 25.1 -0.8 30.6 80 -3.8 25.1
06:00 1021 30.15 850 25.1 -0.6 30.9 79 -3.8 25.1
06:05 1021 30.15 850 25.1 -0.3 31.4 76 -4.1 24.6
06:10 1020 30.12 850 25.1 -0.2 31.6 76 -3.9 24.9
06:15 1020 30.12 850 25.1 -0.5 31.1 78 -3.9 25
06:20 1020 30.12 849 25.07 -1.2 29.8 81 -4.1 24.6
06:25 1020 30.12 850 25.1 -1.6 29.2 80 -4.7 23.6
06:30 1020 30.12 850 25.1 -1.9 28.6 80 -4.8 23.3
06:35 1020 30.12 849 25.07 -1.7 29 79 -4.8 23.4
06:40 1020 30.12 849 25.07 -1.2 29.9 78 -4.6 23.8
06:45 1020 30.12 849 25.07 -0.9 30.4 76 -4.6 23.8
06:50 1020 30.12 849 25.07 -0.7 30.8 76 -4.5 24
06:55 1020 30.12 849 25.07 0.2 32.4 71 -4.4 24.1
07:00 1020 30.12 849 25.07 0.9 33.6 70 -4 24.8
07:05 1020 30.12 849 25.07 0.6 33.2 71 -4 24.9
07:10 1020 30.12 849 25.07 0.3 32.5 73 -4.1 24.7
07:15 1020 30.12 849 25.07 -0.2 31.7 74 -4.2 24.4
07:20 1020 30.12 849 25.07 -0.2 31.6 74 -4.3 24.3
07:25 1020 30.12 849 25.07 -0.1 31.9 74 -4.2 24.4
07:30 1020 30.12 849 25.07 -0.1 31.8 74 -4.2 24.4
07:35 1020 30.12 849 25.07 -0.2 31.6 74 -4.4 24.1
07:40 1020 30.12 849 25.07 -0.2 31.6 74 -4.3 24.3
07:45 1019 30.09 849 25.07 -0.2 31.7 74 -4.3 24.3
07:50 1019 30.09 849 25.07 0.1 32.1 73 -4.2 24.4
07:55 1019 30.09 849 25.07 0.2 32.3 73 -4 24.7
08:00 1019 30.09 849 25.07 0.5 32.8 71 -4.1 24.6
08:05 1019 30.09 849 25.07 0.5 32.9 72 -4 24.7
08:10 1019 30.09 849 25.07 0.6 33 72 -4 24.8
08:15 1019 30.09 849 25.07 -0 32 72 -4.4 24
08:20 1019 30.09 849 25.07 -0.1 31.8 74 -4.1 24.5
08:25 1019 30.09 849 25.07 0.2 32.3 72 -4.3 24.3
08:30 1019 30.09 849 25.07 -0 32 74 -4.1 24.6
08:35 1019 30.09 848 25.04 -0 31.9 73 -4.2 24.4
08:40 1019 30.09 848 25.04 0.1 32.2 74 -4.1 24.7
08:45 1019 30.09 848 25.04 -0.1 31.8 74 -4.1 24.6
08:50 1019 30.09 848 25.04 -0.2 31.6 75 -4.2 24.4
08:55 1019 30.09 848 25.04 -0.2 31.7 75 -4 24.7
09:00 1019 30.09 848 25.04 -0.1 31.8 74 -4.2 24.5
09:05 1019 30.09 848 25.04 -0.2 31.7 75 -4.1 24.6
09:10 1019 30.09 848 25.04 -0.4 31.2 77 -4 24.7
09:15 1019 30.09 848 25.04 -0.4 31.3 74 -4.5 24
09:20 1019 30.09 848 25.04 -0.3 31.4 75 -4.3 24.3
09:25 1019 30.09 848 25.04 0 32.1 73 -4.3 24.2
09:30 1019 30.09 848 25.04 0.7 33.2 69 -4.3 24.3
09:35 1019 30.09 848 25.04 1 33.8 69 -4.1 24.6
09:40 1019 30.09 848 25.04 0.5 32.9 70 -4.3 24.2
09:45 1019 30.09 848 25.04 0.6 33 69 -4.5 23.9
09:50 1019 30.09 848 25.04 0.1 32.2 70 -4.6 23.7
09:55 1019 30.09 848 25.04 -0.1 31.9 70 -4.9 23.2
10:00 1019 30.09 848 25.04 0.7 33.2 67 -4.7 23.6
10:05 1019 30.09 848 25.04 1.2 34.1 65 -4.6 23.7
10:10 1019 30.09 848 25.04 1.4 34.4 63 -5 23.1
10:15 1019 30.09 848 25.04 1.6 35 61 -5 22.9
10:20 1019 30.09 848 25.04 2.1 35.7 59 -5.1 22.8
10:25 1018 30.06 848 25.04 2.8 37.1 57 -4.8 23.4
10:30 1018 30.06 848 25.04 3.4 38.2 55 -4.8 23.4
10:35 1018 30.06 847 25.01 2.9 37.1 57 -4.8 23.4
10:40 1018 30.06 847 25.01 3.1 37.6 57 -4.7 23.5
10:45 1018 30.06 847 25.01 3.2 37.8 57 -4.5 24
10:50 1018 30.06 847 25.01 2.9 37.3 58 -4.5 23.8
10:55 1018 30.06 847 25.01 2.5 36.6 60 -4.5 23.9
11:00 1018 30.06 847 25.01 2.2 36 62 -4.4 24.1
11:05 1018 30.06 847 25.01 2.3 36.2 61 -4.5 23.9
11:10 1017 30.03 847 25.01 2.4 36.3 60 -4.6 23.8
11:15 1017 30.03 847 25.01 2.4 36.4 59 -4.7 23.5
11:20 1017 30.03 846 24.98 2.5 36.6 59 -4.7 23.6
11:25 1017 30.03 846 24.98 2.8 37 58 -4.6 23.7
11:30 1017 30.03 846 24.98 3.3 37.9 55 -4.9 23.3
11:35 1017 30.03 846 24.98 3.5 38.3 56 -4.3 24.2
11:40 1017 30.03 846 24.98 3.3 37.9 57 -4.5 23.9
11:45 1017 30.03 846 24.98 3.5 38.4 54 -4.8 23.3
11:50 1017 30.03 846 24.98 4.3 39.7 53 -4.5 23.9
11:55 1017 30.03 846 24.98 3.6 38.6 55 -4.5 23.8
12:00 1017 30.03 846 24.98 3.9 39 53 -5 23.1
12:05 1017 30.03 846 24.98 4 39.1 54 -4.6 23.8
12:10 1017 30.03 846 24.98 3.9 39.1 53 -4.8 23.4
12:15 1017 30.03 846 24.98 4.4 39.9 53 -4.5 24
12:20 1017 30.03 846 24.98 4.5 40.2 53 -4.3 24.3
12:25 1017 30.03 846 24.98 4.5 40.2 52 -4.4 24
12:30 1017 30.03 846 24.98 4.5 40 53 -4.3 24.3
12:35 1017 30.03 846 24.98 4.5 40.1 53 -4.2 24.4
12:40 1017 30.03 846 24.98 4.8 40.6 52 -4.3 24.3
12:45 1017 30.03 846 24.98 4.6 40.2 53 -4.1 24.7
12:50 1017 30.03 846 24.98 4.4 39.8 54 -4.2 24.4
12:55 1017 30.03 846 24.98 3.9 39 56 -4.1 24.7
13:00 1016 30 846 24.98 3.8 38.9 54 -4.6 23.8
13:05 1016 30 846 24.98 4 39.1 56 -4.1 24.7
13:10 1016 30 845 24.95 3.5 38.3 57 -4.2 24.4
13:15 1016 30 845 24.95 3 37.4 60 -4 24.8
13:20 1016 30 845 24.95 2.4 36.4 62 -4.1 24.6
13:25 1015 29.97 845 24.95 2.9 37.1 59 -4.4 24.1
13:30 1015 29.97 845 24.95 3.8 38.8 55 -4.5 23.9
13:35 1015 29.97 845 24.95 5.1 41.1 49 -4.8 23.4
13:40 1015 29.97 845 24.95 6 42.7 47 -4.4 24.1
13:45 1015 29.97 844 24.92 6.5 43.7 45 -4.7 23.6
13:50 1015 29.97 844 24.92 6.5 43.6 47 -4.1 24.7
13:55 1015 29.97 844 24.92 6.9 44.4 47 -3.7 25.3
14:00 1015 29.97 844 24.92 6.4 43.5 46 -4.3 24.3
14:05 1015 29.97 844 24.92 6.7 44.1 49 -3.3 26
14:10 1015 29.97 844 24.92 7.4 45.4 44 -4 24.7
14:15 1014 29.94 843 24.89 7.8 46 43 -3.9 25
14:20 1014 29.94 843 24.89 7.7 45.8 42 -4.3 24.2
14:25 1014 29.94 843 24.89 8.6 47.5 40 -4.2 24.4
14:30 1014 29.94 843 24.89 9.6 49.3 39 -3.7 25.4
14:35 1014 29.94 843 24.89 9.6 49.2 40 -3.2 26.3
14:40 1014 29.94 843 24.89 8.7 47.7 44 -2.8 27
14:45 1014 29.94 843 24.89 8.4 47.2 43 -3.5 25.7
14:50 1014 29.94 843 24.89 8.3 46.9 44 -3.3 26.1
14:55 1014 29.94 843 24.89 8.2 46.8 43 -3.7 25.3
15:00 1014 29.94 843 24.89 8.7 47.7 43 -3.2 26.3
15:05 1014 29.94 843 24.89 8.4 47.1 43 -3.5 25.8
15:10 1014 29.94 843 24.89 8.1 46.6 44 -3.4 25.9
15:15 1014 29.94 843 24.89 7.4 45.3 49 -2.7 27.1
15:20 1014 29.94 843 24.89 6.6 44 46 -4.2 24.5
15:25 1014 29.94 843 24.89 6.8 44.3 47 -3.7 25.4
15:30 1014 29.94 843 24.89 7.1 44.7 46 -3.6 25.5
15:35 1014 29.94 843 24.89 7 44.6 48 -3.2 26.2
15:40 1014 29.94 843 24.89 6.4 43.6 51 -3 26.6
15:45 1014 29.94 843 24.89 6 42.8 49 -3.9 25
15:50 1013 29.91 843 24.89 6 42.8 50 -3.7 25.3
15:55 1013 29.91 842 24.86 6.2 43.1 49 -3.9 25
16:00 1013 29.91 842 24.86 7.1 44.8 45 -4.1 24.6
16:05 1013 29.91 842 24.86 6.7 44.1 49 -3.1 26.4
16:10 1013 29.91 842 24.86 6 42.7 51 -3.4 26
16:15 1013 29.91 842 24.86 5.8 42.4 51 -3.5 25.7
16:20 1013 29.91 842 24.86 5.4 41.8 54 -3.1 26.4
16:25 1013 29.91 842 24.86 5.2 41.4 53 -3.5 25.7
16:30 1013 29.91 842 24.86 5.2 41.3 54 -3.4 25.9
16:35 1013 29.91 842 24.86 5.2 41.4 53 -3.6 25.6
16:40 1013 29.91 842 24.86 5.7 42.3 49 -4.3 24.3
16:45 1013 29.91 842 24.86 6.7 44 47 -4 24.9
16:50 1013 29.91 842 24.86 7.8 46.1 43 -3.9 24.9
16:55 1013 29.91 842 24.86 8.5 47.2 44 -3 26.6
17:00 1013 29.91 842 24.86 7.3 45.2 49 -2.7 27.1
17:05 1013 29.91 842 24.86 6.6 43.9 51 -2.7 27.1
17:10 1013 29.91 842 24.86 5.8 42.5 54 -2.7 27.2
17:15 1013 29.91 842 24.86 5.5 41.8 55 -2.9 26.7
17:20 1012 29.88 842 24.86 5.4 41.7 55 -2.8 27
17:25 1012 29.88 841 24.83 5.1 41.2 55 -3.2 26.2
17:30 1012 29.88 841 24.83 5.6 42 54 -3.1 26.5
17:35 1012 29.88 841 24.83 5.5 41.9 52 -3.6 25.6
17:40 1012 29.88 841 24.83 5.5 41.9 53 -3.4 25.9
17:45 1012 29.88 841 24.83 6.3 43.3 49 -3.7 25.3
17:50 1012 29.88 841 24.83 6.5 43.8 50 -3 26.6
17:55 1012 29.88 841 24.83 6.6 43.9 49 -3.2 26.2
18:00 1012 29.88 841 24.83 6.7 44.1 48 -3.3 26
18:05 1012 29.88 841 24.83 6.1 43.1 48 -4 24.8
18:10 1012 29.88 841 24.83 6.1 42.9 52 -3 26.6
18:15 1011 29.85 841 24.83 5.8 42.5 53 -3.1 26.5
18:20 1011 29.85 841 24.83 5.8 42.5 48 -4.3 24.2
18:25 1011 29.85 841 24.83 5.9 42.7 47 -4.4 24.1
18:30 1011 29.85 840 24.81 6.1 42.9 50 -3.7 25.4
18:35 1011 29.85 840 24.81 5.9 42.6 48 -4.3 24.3
18:40 1011 29.85 840 24.81 5.3 41.5 54 -3.3 26.1
18:45 1011 29.85 840 24.81 4.8 40.7 51 -4.4 24.1
18:50 1011 29.85 840 24.81 4.9 40.8 56 -3.1 26.3
18:55 1011 29.85 840 24.81 3.8 38.8 59 -3.6 25.5
19:00 1011 29.85 840 24.81 3.8 38.9 56 -4.3 24.3
19:05 1011 29.85 840 24.81 4.1 39.4 58 -3.4 25.9
19:10 1011 29.85 841 24.83 4.1 39.3 55 -4.2 24.5
19:15 1011 29.85 841 24.83 4.6 40.3 52 -4.3 24.2
19:20 1011 29.85 841 24.83 4.9 40.8 52 -4.2 24.4
19:25 1011 29.85 841 24.83 5 41 49 -4.8 23.4
19:30 1011 29.85 840 24.81 5.1 41.1 49 -4.6 23.7
19:35 1011 29.85 841 24.83 5 41 49 -5 23.1
19:40 1011 29.85 841 24.83 5 41 48 -5.1 22.8
19:45 1011 29.85 841 24.83 5 41 47 -5.4 22.3
19:50 1011 29.85 841 24.83 5 41 47 -5.4 22.2
19:55 1012 29.88 841 24.83 5 40.9 46 -5.7 21.8
20:00 1012 29.88 841 24.83 5 41 46 -5.6 21.9
20:05 1012 29.88 841 24.83 5 41.1 45 -5.9 21.5
20:10 1012 29.88 841 24.83 5 41 44 -6.2 20.8
20:15 1012 29.88 841 24.83 5 41 45 -6 21.2
20:20 1012 29.88 841 24.83 4.9 40.8 45 -6 21.2
20:25 1012 29.88 841 24.83 4.8 40.7 45 -6 21.1
20:30 1012 29.88 841 24.83 4.8 40.6 44 -6.4 20.5
20:35 1012 29.88 841 24.83 4.7 40.5 47 -5.6 22
20:40 1012 29.88 841 24.83 4.5 40.1 46 -6.1 21
20:45 1012 29.88 841 24.83 4.5 40 48 -5.5 22
20:50 1012 29.88 841 24.83 4.4 40 45 -6.5 20.4
20:55 1012 29.88 841 24.83 4.6 40.3 47 -5.6 21.9
21:00 1012 29.88 841 24.83 4.6 40.2 45 -6.5 20.4
21:05 1012 29.88 841 24.83 4.7 40.4 46 -6 21.2
21:10 1012 29.88 841 24.83 4.7 40.5 44 -6.4 20.4
21:15 1012 29.88 841 24.83 4.6 40.2 47 -5.7 21.8
21:20 1012 29.88 841 24.83 4.3 39.7 46 -6.3 20.6
21:25 1012 29.88 841 24.83 4.6 40.3 44 -6.5 20.3
21:30 1012 29.88 841 24.83 5 41 43 -6.5 20.4
21:35 1012 29.88 841 24.83 5 41.1 45 -5.9 21.4
21:40 1012 29.88 841 24.83 5 41 45 -6.1 21.1
21:45 1012 29.88 841 24.83 5.2 41.4 44 -6 21.1
21:50 1012 29.88 841 24.83 5.3 41.6 43 -6.2 20.8
21:55 1012 29.88 841 24.83 5.2 41.4 43 -6.3 20.7
22:00 1012 29.88 841 24.83 5.2 41.3 45 -6 21.3
22:05 1012 29.88 841 24.83 5 41 46 -5.6 22
22:10 1012 29.88 841 24.83 4.9 40.8 48 -5.2 22.7
22:15 1012 29.88 841 24.83 5.1 41.1 48 -5 22.9
22:20 1012 29.88 841 24.83 5.2 41.4 50 -4.4 24.1
22:25 1012 29.88 841 24.83 5.5 41.9 51 -4 24.9
22:30 1012 29.88 841 24.83 5.4 41.7 53 -3.5 25.8
22:35 1012 29.88 841 24.83 5.5 41.9 53 -3.4 25.9
22:40 1012 29.88 841 24.83 5.4 41.7 53 -3.3 26
22:45 1012 29.88 841 24.83 5.3 41.5 52 -3.8 25.1
22:50 1012 29.88 841 24.83 5.1 41.2 52 -3.9 24.9
22:55 1012 29.88 841 24.83 5.1 41.1 51 -4.1 24.6
23:00 1012 29.88 841 24.83 4.9 40.9 52 -4.2 24.4
23:05 1012 29.88 841 24.83 5.1 41.1 48 -5.1 22.9
23:10 1012 29.88 841 24.83 5.1 41.2 50 -4.4 24
23:15 1012 29.88 841 24.83 4.7 40.5 53 -4.1 24.7
23:20 1012 29.88 841 24.83 4.3 39.7 52 -4.6 23.7
23:25 1012 29.88 841 24.83 4.8 40.6 51 -4.4 24.1
23:30 1012 29.88 841 24.83 5 41 52 -4 24.9
23:35 1012 29.88 841 24.83 5 41 51 -4.2 24.4
23:40 1012 29.88 841 24.83 5.1 41.2 50 -4.5 23.8
23:45 1012 29.88 841 24.83 5.2 41.4 52 -3.9 24.9
23:50 1012 29.88 841 24.83 5.1 41.2 51 -4.3 24.2
23:55 1012 29.88 841 24.83 5 40.9 52 -4.1 24.6
24:00 1012 29.88 841 24.83 4.7 40.4 54 -3.8 25.1